Time;durP1;ratioP1;P1;durP2;ratioP2;P2;SDS_P1;SDS_P2;PMS_P1;PMS_P2;Temp;Humidity;BMP_temperature;BMP_pressure;BME280_temperature;BME280_humidity;BME280_pressure;Samples;Min_cycle;Max_cycle;Signal;HPM_P1;HPM_P2
2023/10/03 00:02:00;;;;;;;11.90;6.97;;;16.40;99.90;;;;;;5053111;28;20462;-57
2023/10/03 00:04:28;;;;;;;12.73;7.90;;;16.40;99.90;;;;;;5053238;28;20447;-57
2023/10/03 00:06:55;;;;;;;10.87;6.80;;;16.50;99.90;;;;;;5052743;28;20454;-56
2023/10/03 00:09:21;;;;;;;12.33;6.70;;;16.40;99.90;;;;;;5053061;28;20863;-57
2023/10/03 00:11:48;;;;;;;12.87;7.57;;;16.40;99.90;;;;;;5053961;28;20458;-56
2023/10/03 00:14:15;;;;;;;12.80;7.07;;;16.40;99.90;;;;;;5054215;28;20446;-57
2023/10/03 00:16:42;;;;;;;13.13;7.80;;;16.40;99.90;;;;;;5053267;28;20485;-57
2023/10/03 00:19:09;;;;;;;13.97;7.73;;;16.40;99.90;;;;;;5052963;28;20459;-57
2023/10/03 00:21:37;;;;;;;10.27;6.30;;;16.40;99.90;;;;;;5053859;28;20470;-57
2023/10/03 00:24:06;;;;;;;11.70;6.73;;;16.40;99.90;;;;;;5053563;28;20453;-57
2023/10/03 00:26:33;;;;;;;10.93;7.00;;;16.40;99.90;;;;;;5053089;28;20446;-57
2023/10/03 00:29:00;;;;;;;16.20;7.13;;;16.40;99.90;;;;;;5057246;28;20464;-57
2023/10/03 00:31:29;;;;;;;11.83;6.47;;;16.50;99.90;;;;;;5057175;28;20444;-57
2023/10/03 00:33:56;;;;;;;10.43;6.30;;;16.50;99.90;;;;;;5057259;28;20478;-56
2023/10/03 00:36:23;;;;;;;10.93;6.63;;;16.50;99.90;;;;;;5056830;28;20486;-56
2023/10/03 00:38:52;;;;;;;11.67;7.70;;;16.50;99.90;;;;;;5056915;28;20936;-56
2023/10/03 00:41:20;;;;;;;13.43;7.10;;;16.60;99.90;;;;;;5056819;28;20536;-56
2023/10/03 00:43:54;;;;;;;10.43;6.70;;;16.60;99.90;;;;;;5056694;28;20868;-57
2023/10/03 00:46:21;;;;;;;11.87;6.90;;;16.60;99.90;;;;;;5056803;28;20442;-56
2023/10/03 00:48:49;;;;;;;9.50;6.43;;;16.70;99.90;;;;;;5056448;28;20444;-56
2023/10/03 00:51:20;;;;;;;12.27;6.93;;;16.60;99.90;;;;;;5056296;28;20446;-57
2023/10/03 00:53:47;;;;;;;12.20;7.40;;;16.70;99.90;;;;;;5056159;28;20430;-56
2023/10/03 00:56:15;;;;;;;11.80;6.87;;;16.70;99.90;;;;;;5056393;28;20437;-56
2023/10/03 00:58:42;;;;;;;12.63;7.70;;;16.70;99.90;;;;;;5056415;28;20451;-56
2023/10/03 01:01:11;;;;;;;9.13;6.63;;;16.70;99.90;;;;;;5056451;28;20858;-57
2023/10/03 01:03:39;;;;;;;11.50;6.70;;;16.70;99.90;;;;;;5056375;28;20471;-56
2023/10/03 01:06:08;;;;;;;9.27;6.57;;;16.70;99.90;;;;;;5056423;28;20439;-56
2023/10/03 01:08:39;;;;;;;13.53;6.27;;;16.70;99.90;;;;;;5055809;28;20458;-56
2023/10/03 01:11:07;;;;;;;11.17;7.30;;;16.70;99.90;;;;;;5056201;28;20492;-56
2023/10/03 01:13:36;;;;;;;12.93;7.20;;;16.70;99.90;;;;;;5056226;28;20475;-56
2023/10/03 01:16:05;;;;;;;12.73;6.83;;;16.70;99.90;;;;;;5056175;28;20444;-56
2023/10/03 01:18:32;;;;;;;10.70;7.20;;;16.70;99.90;;;;;;5055865;28;20480;-56
2023/10/03 01:21:05;;;;;;;10.57;6.90;;;16.70;99.90;;;;;;5056444;28;20524;-56
2023/10/03 01:23:35;;;;;;;9.80;5.93;;;16.70;99.90;;;;;;5061373;28;20470;-56
2023/10/03 01:26:03;;;;;;;11.50;6.90;;;16.60;99.90;;;;;;5063046;28;20897;-56
2023/10/03 01:28:30;;;;;;;9.80;6.77;;;16.60;99.90;;;;;;5061789;28;20461;-56
2023/10/03 01:30:57;;;;;;;13.47;7.43;;;16.60;99.90;;;;;;5062585;28;20482;-56
2023/10/03 01:33:26;;;;;;;15.13;7.67;;;16.60;99.90;;;;;;5059124;28;20478;-56
2023/10/03 01:35:53;;;;;;;11.37;7.50;;;16.60;99.90;;;;;;5059768;28;20546;-56
2023/10/03 01:38:20;;;;;;;13.50;7.90;;;16.60;99.90;;;;;;5055086;28;20564;-56
2023/10/03 01:40:52;;;;;;;11.50;7.70;;;16.60;99.90;;;;;;5055066;28;20450;-56
2023/10/03 01:43:19;;;;;;;12.80;7.83;;;16.50;99.90;;;;;;5055442;28;20468;-57
2023/10/03 01:45:46;;;;;;;12.60;7.30;;;16.50;99.90;;;;;;5055427;28;20450;-56
2023/10/03 01:48:14;;;;;;;17.30;8.10;;;16.50;99.90;;;;;;5055352;28;20437;-56
2023/10/03 01:50:40;;;;;;;12.97;8.10;;;16.40;99.90;;;;;;5055258;28;20485;-56
2023/10/03 01:53:07;;;;;;;14.40;7.67;;;16.40;99.90;;;;;;5055197;28;20467;-56
2023/10/03 01:55:35;;;;;;;10.70;7.10;;;16.40;99.90;;;;;;5055249;28;20797;-56
2023/10/03 01:58:04;;;;;;;10.67;7.73;;;16.30;99.90;;;;;;5055134;28;20522;-56
2023/10/03 02:00:34;;;;;;;13.27;7.87;;;16.30;99.90;;;;;;5055350;28;20437;-56
2023/10/03 02:03:05;;;;;;;14.90;7.43;;;16.30;99.90;;;;;;5055571;28;20512;-56
2023/10/03 02:05:34;;;;;;;13.70;8.90;;;16.40;99.90;;;;;;5055084;28;20437;-56
2023/10/03 02:08:07;;;;;;;15.70;8.10;;;16.40;99.90;;;;;;5054949;28;20441;-56
2023/10/03 02:10:35;;;;;;;14.07;7.40;;;16.40;99.90;;;;;;5054904;28;20437;-55
2023/10/03 02:13:08;;;;;;;16.07;9.30;;;16.40;99.90;;;;;;5054732;28;20474;-56
2023/10/03 02:15:36;;;;;;;11.17;7.80;;;16.50;99.90;;;;;;5054621;28;20568;-57
2023/10/03 02:18:03;;;;;;;13.30;7.17;;;16.50;99.90;;;;;;5054677;28;20481;-57
2023/10/03 02:20:30;;;;;;;14.70;7.60;;;16.60;99.90;;;;;;5054651;28;20476;-57
2023/10/03 02:22:57;;;;;;;12.83;7.80;;;16.60;99.90;;;;;;5054711;28;20497;-57
2023/10/03 02:25:26;;;;;;;12.27;7.80;;;16.70;99.90;;;;;;5054664;28;20441;-57
2023/10/03 02:27:54;;;;;;;14.87;8.33;;;16.70;99.90;;;;;;5054661;28;20441;-56
2023/10/03 02:30:25;;;;;;;11.57;7.57;;;16.70;99.90;;;;;;5054768;28;20495;-55
2023/10/03 02:32:53;;;;;;;12.80;7.97;;;16.80;99.90;;;;;;5078516;22;20488;-61
2023/10/03 02:35:22;;;;;;;13.37;8.23;;;16.80;99.90;;;;;;5054596;28;20443;-60
2023/10/03 02:37:51;;;;;;;13.27;7.60;;;16.80;99.90;;;;;;5054826;28;20489;-60
2023/10/03 02:40:22;;;;;;;12.13;6.80;;;16.80;99.90;;;;;;5054683;28;20492;-61
2023/10/03 02:42:50;;;;;;;12.87;8.07;;;16.90;99.90;;;;;;5054768;28;20466;-60
2023/10/03 02:45:17;;;;;;;13.60;8.40;;;16.90;99.90;;;;;;5054850;28;20453;-59
2023/10/03 02:47:46;;;;;;;13.93;8.00;;;16.90;99.90;;;;;;5054262;28;20442;-61
2023/10/03 02:50:13;;;;;;;15.00;8.23;;;17.00;99.90;;;;;;5054838;28;20447;-60
2023/10/03 02:52:40;;;;;;;20.23;8.23;;;16.90;99.90;;;;;;5053964;28;20462;-60
2023/10/03 02:55:09;;;;;;;14.00;8.80;;;17.00;99.90;;;;;;5054363;28;20441;-60
2023/10/03 02:57:38;;;;;;;11.70;7.43;;;16.90;99.90;;;;;;5054002;28;21017;-61
2023/10/03 03:00:12;;;;;;;12.37;7.50;;;17.00;99.90;;;;;;5054553;28;20533;-60
2023/10/03 03:02:41;;;;;;;13.37;8.00;;;17.00;99.90;;;;;;5056902;28;20829;-61
2023/10/03 03:05:11;;;;;;;12.43;7.97;;;17.00;99.90;;;;;;5056699;28;20545;-61
2023/10/03 03:07:37;;;;;;;11.90;7.70;;;17.00;99.90;;;;;;5054899;28;20520;-60
2023/10/03 03:10:06;;;;;;;11.07;7.40;;;17.00;99.90;;;;;;5054356;28;20932;-59
2023/10/03 03:12:35;;;;;;;13.70;8.07;;;17.00;99.90;;;;;;5054028;28;20474;-60
2023/10/03 03:15:04;;;;;;;16.03;8.30;;;17.10;99.90;;;;;;5053872;28;20538;-60
2023/10/03 03:17:31;;;;;;;13.17;7.93;;;17.10;99.90;;;;;;5053813;28;20533;-60
2023/10/03 03:19:59;;;;;;;12.63;7.60;;;17.10;99.90;;;;;;5053762;28;20540;-61
2023/10/03 03:22:29;;;;;;;11.20;6.80;;;17.10;99.90;;;;;;5053893;28;20534;-61
2023/10/03 03:24:58;;;;;;;16.27;7.10;;;17.20;99.90;;;;;;5054013;28;20883;-60
2023/10/03 03:27:26;;;;;;;12.70;7.33;;;17.20;99.90;;;;;;5053583;28;20447;-61
2023/10/03 03:30:18;;;;;;;14.17;7.30;;;17.20;99.90;;;;;;5053749;28;20448;-61
2023/10/03 03:32:45;;;;;;;14.63;7.33;;;17.20;99.90;;;;;;5053698;28;20507;-61
2023/10/03 03:35:12;;;;;;;13.80;7.30;;;17.30;99.90;;;;;;5053827;28;20507;-59
2023/10/03 03:37:40;;;;;;;15.47;8.70;;;17.30;99.90;;;;;;5053745;28;20579;-59
2023/10/03 03:40:21;;;;;;;11.87;7.10;;;17.30;99.90;;;;;;5053547;28;20513;-59
2023/10/03 03:42:48;;;;;;;11.10;6.90;;;17.30;99.90;;;;;;5053407;28;20472;-59
2023/10/03 03:45:16;;;;;;;11.87;8.30;;;17.20;99.90;;;;;;5054370;28;20482;-59
2023/10/03 03:47:43;;;;;;;11.67;6.97;;;17.30;99.90;;;;;;5053670;28;20820;-60
2023/10/03 03:50:10;;;;;;;14.37;8.80;;;17.20;99.90;;;;;;5053667;28;20450;-61
2023/10/03 03:52:40;;;;;;;15.80;7.70;;;17.20;99.90;;;;;;5053904;28;20474;-60
2023/10/03 03:55:11;;;;;;;15.97;9.60;;;17.20;99.90;;;;;;5053523;28;20485;-61
2023/10/03 03:57:37;;;;;;;14.67;8.13;;;17.30;99.90;;;;;;5053648;28;20460;-60
2023/10/03 04:00:19;;;;;;;13.87;7.83;;;17.30;99.90;;;;;;5053919;28;20448;-60
2023/10/03 04:02:48;;;;;;;15.17;8.83;;;17.30;99.90;;;;;;5076934;22;20490;-56
2023/10/03 04:05:17;;;;;;;13.73;8.87;;;17.30;99.90;;;;;;5054259;28;20446;-56
2023/10/03 04:07:45;;;;;;;14.57;9.23;;;17.40;99.90;;;;;;5057835;28;20811;-56
2023/10/03 04:12:18;;;;;;;16.50;9.93;;;17.40;99.90;;;;;;5095480;28;20629;-57
2023/10/03 04:14:46;;;;;;;15.30;9.40;;;17.40;99.90;;;;;;5095134;28;20454;-56
2023/10/03 04:17:15;;;;;;;15.33;9.20;;;17.50;99.90;;;;;;5092616;28;20793;-57
2023/10/03 04:19:41;;;;;;;18.40;9.87;;;17.50;99.90;;;;;;5090937;28;20449;-56
2023/10/03 04:22:09;;;;;;;17.40;10.10;;;17.50;99.90;;;;;;5090605;28;20458;-57
2023/10/03 04:24:36;;;;;;;14.70;9.00;;;17.50;99.90;;;;;;5090434;28;20445;-56
2023/10/03 04:27:03;;;;;;;21.03;10.83;;;17.50;99.90;;;;;;5090566;28;20848;-55
2023/10/03 04:29:33;;;;;;;15.30;9.70;;;17.50;99.90;;;;;;5090163;28;20451;-56
2023/10/03 04:31:59;;;;;;;15.47;9.20;;;17.50;99.90;;;;;;5090298;28;20497;-56
2023/10/03 04:34:27;;;;;;;16.80;10.27;;;17.50;99.90;;;;;;5090504;28;20805;-56
2023/10/03 04:36:54;;;;;;;15.20;8.50;;;17.60;99.90;;;;;;5090479;28;20450;-56
2023/10/03 04:39:22;;;;;;;17.33;9.03;;;17.60;99.90;;;;;;5090363;28;20496;-55
2023/10/03 04:41:49;;;;;;;17.30;10.10;;;17.60;99.90;;;;;;5090302;28;20465;-56
2023/10/03 04:44:15;;;;;;;16.77;9.40;;;17.60;99.90;;;;;;5090396;28;20805;-56
2023/10/03 04:46:45;;;;;;;14.77;8.77;;;17.60;99.90;;;;;;5090247;28;20447;-57
2023/10/03 04:49:12;;;;;;;16.30;9.20;;;17.60;99.90;;;;;;5090105;28;20442;-57
2023/10/03 04:51:39;;;;;;;16.70;9.27;;;17.70;99.90;;;;;;5090007;28;20482;-58
2023/10/03 04:54:06;;;;;;;16.63;9.03;;;17.70;99.90;;;;;;5089600;28;20541;-56
2023/10/03 04:56:32;;;;;;;23.33;9.73;;;17.70;99.90;;;;;;5090481;28;20441;-56
2023/10/03 04:59:00;;;;;;;16.50;9.53;;;17.70;99.90;;;;;;5091130;28;20441;-56
2023/10/03 05:01:26;;;;;;;13.37;8.90;;;17.80;99.90;;;;;;5091109;28;20454;-55
2023/10/03 05:03:54;;;;;;;14.77;9.40;;;17.70;99.90;;;;;;5092740;28;20449;-56
2023/10/03 05:06:22;;;;;;;18.50;9.67;;;17.70;99.90;;;;;;5091837;28;20442;-56
2023/10/03 05:08:50;;;;;;;19.00;10.10;;;17.80;99.90;;;;;;5091518;28;20556;-56
2023/10/03 05:11:17;;;;;;;16.33;9.20;;;17.80;99.90;;;;;;5091376;28;20485;-56
2023/10/03 05:13:45;;;;;;;13.97;8.10;;;17.80;99.90;;;;;;5092523;28;20449;-56
2023/10/03 05:16:12;;;;;;;20.43;9.37;;;17.80;99.90;;;;;;5094413;28;20442;-58
2023/10/03 05:18:39;;;;;;;15.00;9.50;;;17.70;99.90;;;;;;5089725;28;20441;-57
2023/10/03 05:21:08;;;;;;;19.73;10.67;;;17.70;99.90;;;;;;5089426;28;20457;-57
2023/10/03 05:23:34;;;;;;;18.07;9.50;;;17.70;99.90;;;;;;5075957;28;20945;-57
2023/10/03 05:26:02;;;;;;;17.33;9.30;;;17.70;99.90;;;;;;5075705;28;20446;-57
2023/10/03 05:28:29;;;;;;;16.23;9.67;;;17.70;99.90;;;;;;5075680;28;20500;-57
2023/10/03 05:30:59;;;;;;;15.80;8.60;;;17.70;99.90;;;;;;5075613;28;20482;-58
2023/10/03 05:33:25;;;;;;;17.40;9.97;;;17.60;99.90;;;;;;5075665;28;20445;-58
2023/10/03 05:35:52;;;;;;;15.03;9.03;;;17.70;99.90;;;;;;5075537;28;20447;-55
2023/10/03 05:38:22;;;;;;;16.60;10.30;;;17.70;99.90;;;;;;5075475;28;20456;-57
2023/10/03 05:40:49;;;;;;;14.13;9.60;;;17.70;99.90;;;;;;5075322;28;20488;-57
2023/10/03 05:43:15;;;;;;;16.93;10.23;;;17.70;99.90;;;;;;5075137;28;20806;-56
2023/10/03 05:45:42;;;;;;;15.93;9.67;;;17.80;99.90;;;;;;5075544;28;20445;-55
2023/10/03 05:48:10;;;;;;;16.70;10.43;;;17.80;99.90;;;;;;5075938;28;20626;-56
2023/10/03 05:50:37;;;;;;;20.83;10.70;;;17.80;99.90;;;;;;5075118;28;20939;-56
2023/10/03 05:53:06;;;;;;;17.20;8.97;;;17.90;99.90;;;;;;5075063;28;20462;-56
2023/10/03 05:55:34;;;;;;;18.60;9.27;;;17.90;99.90;;;;;;5075156;28;20815;-56
2023/10/03 05:58:01;;;;;;;17.80;9.27;;;17.90;99.90;;;;;;5075089;28;20443;-56
2023/10/03 06:00:27;;;;;;;17.70;10.13;;;17.90;99.90;;;;;;5075000;28;20439;-56
2023/10/03 06:02:54;;;;;;;16.10;9.23;;;17.90;99.90;;;;;;5074719;28;20459;-56
2023/10/03 06:05:22;;;;;;;19.50;9.57;;;17.90;99.90;;;;;;5075046;28;20443;-56
2023/10/03 06:07:49;;;;;;;17.37;9.43;;;18.00;99.90;;;;;;5074960;28;20820;-56
2023/10/03 06:10:16;;;;;;;19.47;10.57;;;18.00;99.90;;;;;;5074790;28;20457;-56
2023/10/03 06:12:45;;;;;;;18.67;11.17;;;18.10;99.90;;;;;;5074367;28;20483;-56
2023/10/03 06:15:12;;;;;;;13.60;8.87;;;18.20;99.90;;;;;;5074738;28;20450;-56
2023/10/03 06:17:40;;;;;;;20.73;9.17;;;18.30;99.90;;;;;;5074401;28;20984;-56
2023/10/03 06:20:08;;;;;;;17.67;10.13;;;18.40;99.90;;;;;;5074768;28;20448;-56
2023/10/03 06:22:35;;;;;;;15.77;9.40;;;18.40;99.90;;;;;;5074194;28;20463;-56
2023/10/03 06:25:03;;;;;;;18.50;10.00;;;18.50;99.90;;;;;;5074505;28;20448;-56
2023/10/03 06:27:30;;;;;;;16.57;9.00;;;18.60;99.90;;;;;;5074441;28;20454;-57
2023/10/03 06:29:58;;;;;;;15.43;9.30;;;18.70;99.90;;;;;;5074487;28;20443;-56
2023/10/03 06:32:25;;;;;;;18.87;10.20;;;18.80;99.90;;;;;;5074206;28;20492;-56
2023/10/03 06:34:52;;;;;;;18.60;9.70;;;18.80;99.90;;;;;;5073298;28;20442;-56
2023/10/03 06:37:19;;;;;;;16.60;8.90;;;18.90;99.90;;;;;;5074227;28;20479;-57
2023/10/03 06:39:47;;;;;;;21.17;10.47;;;19.00;99.90;;;;;;5074345;28;20474;-57
2023/10/03 06:42:13;;;;;;;17.13;8.67;;;19.20;99.90;;;;;;5074225;28;20552;-58
2023/10/03 06:44:41;;;;;;;20.47;10.30;;;19.30;99.90;;;;;;5074309;28;20445;-57
2023/10/03 06:47:09;;;;;;;15.90;8.90;;;19.40;99.90;;;;;;5074708;28;20448;-56
2023/10/03 06:49:36;;;;;;;19.50;9.53;;;19.50;99.90;;;;;;5076725;28;20472;-57
2023/10/03 06:52:03;;;;;;;15.80;9.40;;;19.50;99.90;;;;;;5076849;28;20500;-57
2023/10/03 06:54:30;;;;;;;17.80;9.60;;;19.60;99.90;;;;;;5080716;28;20450;-57
2023/10/03 06:56:57;;;;;;;15.40;9.30;;;19.70;99.90;;;;;;5077567;28;20457;-57
2023/10/03 06:59:24;;;;;;;20.30;9.17;;;19.70;99.90;;;;;;5079404;28;20443;-57
2023/10/03 07:01:50;;;;;;;14.60;8.30;;;19.80;99.70;;;;;;5076907;28;20455;-57
2023/10/03 07:04:20;;;;;;;17.93;9.73;;;19.80;99.40;;;;;;5073686;28;20967;-57
2023/10/03 07:06:50;;;;;;;18.00;9.00;;;19.90;99.10;;;;;;5074005;28;20453;-57
2023/10/03 07:09:18;;;;;;;18.10;8.93;;;20.00;98.80;;;;;;5073482;28;20947;-58
2023/10/03 07:11:47;;;;;;;15.60;8.30;;;20.10;98.50;;;;;;5073108;28;20491;-57
2023/10/03 07:14:14;;;;;;;16.23;9.43;;;20.10;98.10;;;;;;5073731;28;20487;-57
2023/10/03 07:16:41;;;;;;;15.10;8.83;;;20.20;97.80;;;;;;5073628;28;20519;-57
2023/10/03 07:19:10;;;;;;;15.03;8.57;;;20.30;97.50;;;;;;5073584;28;20855;-57
2023/10/03 07:21:38;;;;;;;15.30;9.37;;;20.30;97.10;;;;;;5073324;28;20960;-57
2023/10/03 07:24:06;;;;;;;12.90;8.60;;;20.40;96.90;;;;;;5073709;28;20462;-57
2023/10/03 07:26:33;;;;;;;14.53;9.20;;;20.40;96.50;;;;;;5073467;28;20444;-57
2023/10/03 07:29:01;;;;;;;15.00;8.50;;;20.40;96.30;;;;;;5073596;28;20435;-57
2023/10/03 07:31:28;;;;;;;15.20;9.83;;;20.50;96.10;;;;;;5073306;28;20480;-57
2023/10/03 07:33:56;;;;;;;14.70;8.90;;;20.50;95.80;;;;;;5073499;28;20443;-57
2023/10/03 07:36:23;;;;;;;16.17;8.27;;;20.60;95.60;;;;;;5073331;28;20446;-58
2023/10/03 07:38:51;;;;;;;13.67;8.30;;;20.60;95.50;;;;;;5073329;28;20448;-57
2023/10/03 07:41:19;;;;;;;15.33;8.63;;;20.60;95.40;;;;;;5073463;28;20502;-56
2023/10/03 07:43:48;;;;;;;15.87;8.50;;;20.60;95.30;;;;;;5073332;28;20539;-57
2023/10/03 07:46:20;;;;;;;16.13;7.80;;;20.60;95.30;;;;;;5073068;28;20443;-57
2023/10/03 07:48:48;;;;;;;13.37;8.90;;;20.70;95.30;;;;;;5073726;28;20479;-57
2023/10/03 07:51:18;;;;;;;14.90;8.60;;;20.70;95.20;;;;;;5073080;28;20559;-57
2023/10/03 07:53:46;;;;;;;16.07;8.77;;;20.70;95.20;;;;;;5073104;28;20449;-57
2023/10/03 07:56:24;;;;;;;18.23;10.20;;;20.70;95.20;;;;;;5073191;28;20514;-57
2023/10/03 07:58:53;;;;;;;14.57;8.70;;;20.70;95.10;;;;;;5072873;28;20426;-57
2023/10/03 08:01:20;;;;;;;14.70;9.83;;;20.80;95.20;;;;;;5073709;28;20579;-58
2023/10/03 08:03:47;;;;;;;14.40;8.43;;;20.80;95.20;;;;;;5073283;28;20439;-58
2023/10/03 08:06:15;;;;;;;13.20;9.00;;;20.80;95.10;;;;;;5073042;28;20444;-58
2023/10/03 08:08:41;;;;;;;14.53;8.20;;;20.90;95.10;;;;;;5072887;28;20444;-58
2023/10/03 08:11:08;;;;;;;12.00;8.27;;;20.90;95.00;;;;;;5073079;28;20541;-57
2023/10/03 08:13:39;;;;;;;13.30;8.50;;;21.00;95.00;;;;;;5072743;28;20447;-57
2023/10/03 08:16:05;;;;;;;16.23;9.40;;;21.00;95.00;;;;;;5072846;28;20439;-58
2023/10/03 08:18:36;;;;;;;15.97;9.33;;;21.00;95.00;;;;;;5073237;28;20440;-57
2023/10/03 08:21:03;;;;;;;15.63;8.90;;;21.10;95.00;;;;;;5073034;28;20488;-57
2023/10/03 08:23:35;;;;;;;15.10;8.90;;;21.20;95.00;;;;;;5073279;28;20448;-57
2023/10/03 08:26:02;;;;;;;15.40;8.47;;;21.30;94.80;;;;;;5072403;28;20911;-58
2023/10/03 08:28:29;;;;;;;15.57;8.57;;;21.40;94.70;;;;;;5072806;28;20526;-56
2023/10/03 08:31:05;;;;;;;17.33;10.13;;;21.50;94.50;;;;;;5072655;28;20438;-57
2023/10/03 08:33:36;;;;;;;15.50;8.50;;;21.60;94.20;;;;;;5072791;28;20465;-57
2023/10/03 08:36:03;;;;;;;14.63;8.20;;;21.70;94.00;;;;;;5072309;28;20434;-56
2023/10/03 08:38:29;;;;;;;14.90;8.93;;;21.60;93.90;;;;;;5072628;28;20441;-59
2023/10/03 08:40:57;;;;;;;18.77;9.30;;;21.60;94.00;;;;;;5072470;28;20447;-57
2023/10/03 08:43:26;;;;;;;16.57;9.00;;;21.50;94.00;;;;;;5073204;28;20442;-57
2023/10/03 08:45:58;;;;;;;15.50;8.73;;;21.40;94.20;;;;;;5072818;28;20468;-57
2023/10/03 08:48:31;;;;;;;13.60;8.43;;;21.40;94.60;;;;;;5073116;28;20425;-59
2023/10/03 08:50:58;;;;;;;16.93;8.90;;;21.30;94.80;;;;;;5072701;28;20425;-59
2023/10/03 08:53:27;;;;;;;16.70;9.03;;;21.20;95.10;;;;;;5072690;28;20509;-57
2023/10/03 08:55:57;;;;;;;14.20;9.20;;;21.20;95.40;;;;;;5073576;28;20525;-57
2023/10/03 08:58:26;;;;;;;12.60;8.23;;;21.20;95.70;;;;;;5075262;28;20938;-57
2023/10/03 09:00:59;;;;;;;15.80;9.27;;;21.30;95.90;;;;;;5076561;28;20926;-58
2023/10/03 09:03:42;;;;;;;15.83;8.90;;;21.40;96.00;;;;;;5076627;28;20481;-57
2023/10/03 09:06:09;;;;;;;15.30;10.87;;;21.40;96.10;;;;;;5076326;28;20430;-57
2023/10/03 09:08:36;;;;;;;11.93;9.10;;;21.50;96.30;;;;;;5076411;28;20439;-58
2023/10/03 09:11:13;;;;;;;20.53;9.60;;;21.70;96.20;;;;;;5076362;28;20594;-56
2023/10/03 09:13:41;;;;;;;12.60;9.53;;;21.70;95.90;;;;;;5076584;28;20557;-58
2023/10/03 09:16:08;;;;;;;13.13;9.70;;;21.90;95.80;;;;;;5076683;28;20468;-57
2023/10/03 09:18:41;;;;;;;12.77;9.33;;;22.00;95.40;;;;;;5076807;28;20443;-58
2023/10/03 09:21:11;;;;;;;9.33;8.33;;;22.10;95.00;;;;;;5076396;28;20465;-56
2023/10/03 09:23:59;;;;;;;10.90;7.70;;;22.20;94.80;;;;;;5076562;28;20445;-58
2023/10/03 09:26:26;;;;;;;12.80;8.93;;;22.20;94.50;;;;;;5079483;28;20989;-57
2023/10/03 09:28:53;;;;;;;10.30;8.27;;;22.30;94.40;;;;;;5081238;28;20485;-57
2023/10/03 09:31:22;;;;;;;11.27;8.87;;;22.30;94.10;;;;;;5081932;28;20470;-57
2023/10/03 09:33:50;;;;;;;12.17;8.10;;;22.20;94.00;;;;;;5083035;28;20485;-57
2023/10/03 09:36:17;;;;;;;11.23;8.30;;;22.20;93.90;;;;;;5082553;28;20967;-57
2023/10/03 09:38:44;;;;;;;10.30;7.90;;;22.10;93.90;;;;;;5082751;28;20450;-58
2023/10/03 09:41:17;;;;;;;15.90;8.57;;;22.00;94.00;;;;;;5080092;28;20469;-57
2023/10/03 09:43:47;;;;;;;12.40;7.80;;;21.90;94.20;;;;;;5075012;28;20427;-57
2023/10/03 09:46:15;;;;;;;12.90;8.03;;;21.90;94.40;;;;;;5075214;28;20465;-57
2023/10/03 09:48:42;;;;;;;10.40;7.40;;;21.90;94.60;;;;;;5075341;28;20457;-58
2023/10/03 09:51:13;;;;;;;12.23;8.70;;;21.90;94.80;;;;;;5075008;28;20483;-58
2023/10/03 09:53:41;;;;;;;13.40;8.87;;;21.90;94.80;;;;;;5075273;28;20470;-57
2023/10/03 09:56:09;;;;;;;13.87;8.97;;;22.00;95.10;;;;;;5075434;28;20799;-57
2023/10/03 09:58:36;;;;;;;11.73;9.03;;;22.10;94.80;;;;;;5075081;28;20439;-58
2023/10/03 10:01:04;;;;;;;12.83;8.63;;;22.10;94.70;;;;;;5074782;28;21010;-57
2023/10/03 10:03:36;;;;;;;14.83;8.40;;;22.20;94.60;;;;;;5075160;28;20439;-58
2023/10/03 10:06:19;;;;;;;10.27;8.50;;;22.40;94.40;;;;;;5075093;28;20437;-58
2023/10/03 10:08:57;;;;;;;13.03;8.20;;;22.50;94.00;;;;;;5075075;28;20959;-58
2023/10/03 10:11:27;;;;;;;11.10;7.53;;;22.50;93.60;;;;;;5074621;28;20507;-57
2023/10/03 10:14:08;;;;;;;10.23;7.17;;;22.50;93.50;;;;;;5074550;28;20571;-57
2023/10/03 10:16:35;;;;;;;10.17;7.20;;;22.30;93.20;;;;;;5074415;28;20801;-59
2023/10/03 10:19:03;;;;;;;12.00;7.43;;;22.20;93.60;;;;;;5076931;28;20482;-56
2023/10/03 10:21:32;;;;;;;10.87;7.67;;;22.10;93.90;;;;;;5074843;28;20473;-58
2023/10/03 10:24:27;;;;;;;14.40;8.90;;;22.00;94.20;;;;;;5074869;28;20530;-58
2023/10/03 10:26:59;;;;;;;10.47;6.60;;;21.90;94.40;;;;;;5075949;28;20430;-58
2023/10/03 10:29:28;;;;;;;7.00;6.17;;;21.80;94.40;;;;;;5074430;28;20433;-58
2023/10/03 10:31:59;;;;;;;13.93;5.40;;;21.70;94.50;;;;;;5074181;28;20979;-58
2023/10/03 10:34:32;;;;;;;8.57;6.17;;;21.60;94.50;;;;;;5074376;28;20448;-58
2023/10/03 10:37:02;;;;;;;11.03;6.20;;;21.60;94.60;;;;;;5073980;28;20427;-58
2023/10/03 10:43:01;;;;;;;10.70;4.97;;;21.70;94.30;;;;;;5071357;28;20991;-56
2023/10/03 10:45:37;;;;;;;7.83;5.40;;;21.70;93.90;;;;;;5072327;28;20450;-57
2023/10/03 10:48:05;;;;;;;6.10;4.63;;;21.80;93.70;;;;;;5073541;28;20516;-57
2023/10/03 10:51:16;;;;;;;5.30;4.10;;;21.90;93.40;;;;;;5073846;28;20441;-58
2023/10/03 10:53:43;;;;;;;5.83;3.43;;;21.90;93.20;;;;;;5073748;28;20576;-57
2023/10/03 10:56:13;;;;;;;6.10;5.20;;;21.90;93.00;;;;;;5073650;28;20446;-57
2023/10/03 10:58:50;;;;;;;7.10;3.87;;;21.80;92.60;;;;;;5073680;28;20528;-58
2023/10/03 11:01:18;;;;;;;4.60;3.37;;;21.80;92.30;;;;;;5073805;28;20471;-57
2023/10/03 11:03:44;;;;;;;6.07;3.60;;;21.60;91.90;;;;;;5073394;28;20452;-58
2023/10/03 11:06:15;;;;;;;4.00;3.20;;;21.50;92.10;;;;;;5073224;28;20963;-57
2023/10/03 11:08:49;;;;;;;4.40;2.80;;;21.50;92.30;;;;;;5073214;28;20446;-58
2023/10/03 11:11:18;;;;;;;4.90;3.20;;;21.50;92.40;;;;;;5073382;28;20477;-57
2023/10/03 11:13:46;;;;;;;4.63;3.10;;;21.60;92.20;;;;;;5073514;28;20482;-58
2023/10/03 11:16:22;;;;;;;8.97;5.00;;;21.60;91.90;;;;;;5073731;28;20930;-58
2023/10/03 11:18:49;;;;;;;3.33;2.90;;;21.70;91.70;;;;;;5074287;28;20431;-58
2023/10/03 11:21:17;;;;;;;4.30;3.50;;;21.80;91.50;;;;;;5072712;28;20969;-58
2023/10/03 11:24:08;;;;;;;5.57;4.10;;;21.90;91.40;;;;;;5073467;28;20439;-58
2023/10/03 11:26:48;;;;;;;4.50;3.23;;;21.90;91.20;;;;;;5073449;28;20834;-58
2023/10/03 11:29:16;;;;;;;3.73;3.33;;;21.80;91.10;;;;;;5073578;28;20423;-58
2023/10/03 11:31:43;;;;;;;4.47;3.33;;;21.70;91.00;;;;;;5073273;28;20552;-58
2023/10/03 11:34:11;;;;;;;5.70;3.83;;;21.70;91.10;;;;;;5073736;28;20527;-57
2023/10/03 11:36:42;;;;;;;6.43;3.97;;;21.50;91.30;;;;;;5073074;28;20954;-57
2023/10/03 11:39:10;;;;;;;6.00;4.50;;;21.50;91.70;;;;;;5072853;28;20890;-57
2023/10/03 11:41:38;;;;;;;8.57;4.47;;;21.40;92.10;;;;;;5073294;28;20544;-58
2023/10/03 11:44:20;;;;;;;6.03;4.60;;;21.50;92.30;;;;;;5073372;28;20449;-58
2023/10/03 11:46:47;;;;;;;6.70;4.30;;;21.50;92.40;;;;;;5073446;28;20429;-58
2023/10/03 11:49:15;;;;;;;6.50;5.50;;;21.60;92.40;;;;;;5073079;28;20446;-58
2023/10/03 11:51:43;;;;;;;5.53;4.33;;;21.60;92.40;;;;;;5073246;28;20501;-58
2023/10/03 11:54:10;;;;;;;6.17;4.97;;;21.50;92.60;;;;;;5072979;28;20542;-58
2023/10/03 11:56:42;;;;;;;7.70;5.20;;;21.60;92.90;;;;;;5073642;28;20442;-56
2023/10/03 11:59:14;;;;;;;4.50;4.10;;;21.70;92.90;;;;;;5073650;28;20454;-58
2023/10/03 12:01:42;;;;;;;6.00;4.20;;;21.80;92.70;;;;;;5073175;28;20502;-57
2023/10/03 12:04:09;;;;;;;4.97;4.20;;;21.90;92.30;;;;;;5075308;28;20446;-57
2023/10/03 12:06:37;;;;;;;4.73;4.20;;;21.90;92.10;;;;;;5078065;28;20445;-58
2023/10/03 12:09:08;;;;;;;9.13;4.40;;;21.80;92.20;;;;;;5078138;28;20525;-57
2023/10/03 12:11:36;;;;;;;4.10;3.40;;;21.70;92.30;;;;;;5077661;28;20483;-57
2023/10/03 12:14:02;;;;;;;4.80;3.90;;;21.60;92.20;;;;;;5078462;28;20479;-57
2023/10/03 12:16:31;;;;;;;3.57;3.27;;;21.50;92.30;;;;;;5078008;28;20437;-57
2023/10/03 12:18:57;;;;;;;2.67;2.13;;;21.50;92.30;;;;;;5078329;28;20444;-57
2023/10/03 12:21:25;;;;;;;3.60;3.10;;;21.40;91.60;;;;;;5075569;28;20462;-57
2023/10/03 12:23:51;;;;;;;5.70;3.00;;;21.40;91.50;;;;;;5072815;28;20815;-57
2023/10/03 12:26:18;;;;;;;4.00;2.40;;;21.40;91.30;;;;;;5072778;28;20444;-57
2023/10/03 12:28:45;;;;;;;10.03;2.80;;;21.50;90.90;;;;;;5073100;28;20441;-57
2023/10/03 12:31:11;;;;;;;3.93;2.80;;;21.50;90.60;;;;;;5072863;28;20465;-57
2023/10/03 12:33:39;;;;;;;5.80;2.80;;;21.40;90.60;;;;;;5076617;28;20467;-57
2023/10/03 12:36:06;;;;;;;4.10;2.53;;;21.40;90.60;;;;;;5077167;28;20439;-57
2023/10/03 12:38:33;;;;;;;5.13;2.80;;;21.30;90.70;;;;;;5076861;28;20928;-57
2023/10/03 12:41:01;;;;;;;4.40;2.80;;;21.20;90.80;;;;;;5078435;28;20445;-56
2023/10/03 12:43:27;;;;;;;6.00;2.90;;;21.20;91.30;;;;;;5078955;28;20535;-56
2023/10/03 12:45:54;;;;;;;5.13;3.50;;;21.00;91.40;;;;;;5078606;28;20439;-57
2023/10/03 12:48:21;;;;;;;3.50;2.00;;;20.90;92.10;;;;;;5080074;28;20535;-56
2023/10/03 12:50:51;;;;;;;2.83;1.80;;;20.60;94.40;;;;;;5076604;28;20800;-56
2023/10/03 12:53:17;;;;;;;4.00;2.03;;;19.70;99.80;;;;;;5076742;28;20484;-57